createdAt,value
2023-04-21T00:00:54.313Z,16.83
2023-04-21T00:03:23.641Z,16.40
2023-04-21T00:05:51.081Z,16.57
2023-04-21T00:08:18.883Z,17.37
2023-04-21T00:10:46.878Z,16.10
2023-04-21T00:13:14.208Z,17.13
2023-04-21T00:15:40.911Z,15.90
2023-04-21T00:18:07.678Z,17.33
2023-04-21T00:20:34.197Z,16.57
2023-04-21T00:23:00.650Z,17.53
2023-04-21T00:25:27.341Z,17.23
2023-04-21T00:27:53.765Z,17.00
2023-04-21T00:30:20.362Z,17.10
2023-04-21T00:32:47.173Z,16.30
2023-04-21T00:35:13.774Z,17.23
2023-04-21T00:37:40.787Z,17.23
2023-04-21T00:40:08.567Z,17.90
2023-04-21T00:42:35.097Z,16.40
2023-04-21T00:45:01.677Z,16.87
2023-04-21T00:47:31.171Z,16.90
2023-04-21T00:49:58.825Z,16.40
2023-04-21T00:52:26.403Z,16.97
2023-04-21T00:54:53.329Z,17.67
2023-04-21T00:57:21.180Z,16.60
2023-04-21T00:59:47.818Z,15.80
2023-04-21T01:02:16.676Z,15.63
2023-04-21T01:04:45.566Z,16.07
2023-04-21T01:07:12.577Z,17.07
2023-04-21T01:09:39.205Z,16.50
2023-04-21T01:12:11.056Z,14.20
2023-04-21T01:14:38.939Z,16.10
2023-04-21T01:17:06.103Z,17.70
2023-04-21T01:19:35.654Z,16.93
2023-04-21T01:22:03.680Z,15.70
2023-04-21T01:24:40.909Z,16.63
2023-04-21T01:27:12.579Z,16.00
2023-04-21T01:29:41.076Z,15.13
2023-04-21T01:32:13.324Z,15.33
2023-04-21T01:34:41.170Z,15.90
2023-04-21T01:37:09.745Z,15.33
2023-04-21T01:39:45.663Z,16.33
2023-04-21T01:42:13.016Z,14.87
2023-04-21T01:44:40.076Z,16.10
2023-04-21T01:47:07.016Z,15.13
2023-04-21T01:49:33.466Z,13.73
2023-04-21T01:51:59.902Z,14.70
2023-04-21T01:54:26.521Z,14.83
2023-04-21T01:56:53.116Z,15.67
2023-04-21T01:59:21.221Z,15.20
2023-04-21T02:01:47.861Z,15.97
2023-04-21T02:04:14.404Z,16.57
2023-04-21T02:06:41.180Z,14.60
2023-04-21T02:09:07.618Z,16.27
2023-04-21T02:11:34.303Z,15.57
2023-04-21T02:14:00.914Z,16.57
2023-04-21T02:16:27.864Z,14.77
2023-04-21T02:19:03.127Z,14.63
2023-04-21T02:21:29.624Z,16.87
2023-04-21T02:23:56.303Z,15.00
2023-04-21T02:26:26.121Z,15.13
2023-04-21T02:28:52.721Z,15.83
2023-04-21T02:31:19.451Z,14.60
2023-04-21T02:33:48.144Z,17.67
2023-04-21T02:36:14.677Z,15.10
2023-04-21T02:38:41.314Z,16.97
2023-04-21T02:41:09.860Z,15.43
2023-04-21T02:43:36.315Z,15.30
2023-04-21T02:46:07.452Z,15.17
2023-04-21T02:48:35.319Z,17.50
2023-04-21T02:51:02.509Z,14.13
2023-04-21T02:53:29.178Z,15.90
2023-04-21T02:55:56.336Z,17.40
2023-04-21T02:58:23.606Z,15.10
2023-04-21T03:00:50.213Z,15.33
2023-04-21T03:03:16.823Z,15.17
2023-04-21T03:05:43.466Z,15.70
2023-04-21T03:08:09.946Z,17.90
2023-04-21T03:10:37.649Z,18.50
2023-04-21T03:13:04.287Z,17.67
2023-04-21T03:15:32.280Z,15.73
2023-04-21T03:18:01.435Z,16.57
2023-04-21T03:20:28.197Z,16.23
2023-04-21T03:22:54.626Z,15.93
2023-04-21T03:25:21.571Z,18.13
2023-04-21T03:27:48.040Z,15.20
2023-04-21T03:30:14.600Z,16.27
2023-04-21T03:32:41.134Z,17.50
2023-04-21T03:35:07.934Z,15.50
2023-04-21T03:37:34.435Z,17.33
2023-04-21T03:40:01.087Z,17.67
2023-04-21T03:42:29.684Z,17.00
2023-04-21T03:44:56.787Z,18.30
2023-04-21T03:47:23.722Z,17.03
2023-04-21T03:49:51.619Z,16.47
2023-04-21T03:52:18.067Z,17.33
2023-04-21T03:54:44.584Z,17.53
2023-04-21T03:57:11.141Z,17.93
2023-04-21T03:59:37.855Z,17.10
2023-04-21T04:02:04.544Z,17.00
2023-04-21T04:04:31.709Z,17.67
2023-04-21T04:06:58.621Z,17.57
2023-04-21T04:09:25.278Z,16.67
2023-04-21T04:11:51.787Z,16.50
2023-04-21T04:14:18.217Z,18.83
2023-04-21T04:16:44.654Z,18.80
2023-04-21T04:19:11.595Z,17.47
2023-04-21T04:21:38.504Z,19.00
2023-04-21T04:24:08.700Z,16.47
2023-04-21T04:26:35.549Z,16.47
2023-04-21T04:29:02.349Z,17.30
2023-04-21T04:31:32.540Z,18.07
2023-04-21T04:33:59.145Z,16.40
2023-04-21T04:36:25.678Z,18.07
2023-04-21T04:38:52.166Z,16.80
2023-04-21T04:41:19.519Z,16.37
2023-04-21T04:43:46.498Z,18.90
2023-04-21T04:46:13.182Z,17.07
2023-04-21T04:48:40.469Z,15.27
2023-04-21T04:51:06.918Z,17.90
2023-04-21T04:53:33.423Z,17.00
2023-04-21T04:55:59.849Z,19.23
2023-04-21T04:58:26.438Z,17.80
2023-04-21T05:00:52.989Z,17.97
2023-04-21T05:03:19.534Z,18.90
2023-04-21T05:05:46.244Z,17.07
2023-04-21T05:08:12.973Z,20.00
2023-04-21T05:10:39.857Z,18.83
2023-04-21T05:13:06.737Z,20.43
2023-04-21T05:15:33.299Z,18.60
2023-04-21T05:17:59.794Z,20.67
2023-04-21T05:20:26.339Z,21.20
2023-04-21T05:22:52.769Z,19.50
2023-04-21T05:25:19.189Z,21.50
2023-04-21T05:27:45.802Z,22.20
2023-04-21T05:30:12.264Z,20.57
2023-04-21T05:32:38.931Z,21.47
2023-04-21T05:35:06.244Z,22.37
2023-04-21T05:37:32.721Z,21.67
2023-04-21T05:39:59.151Z,20.63
2023-04-21T05:42:25.732Z,21.70
2023-04-21T05:44:52.220Z,22.70
2023-04-21T05:47:18.712Z,21.87
2023-04-21T05:49:49.991Z,20.00
2023-04-21T05:52:17.730Z,23.20
2023-04-21T05:54:44.236Z,23.83
2023-04-21T05:57:10.833Z,21.43
2023-04-21T05:59:37.339Z,22.83
2023-04-21T06:02:04.086Z,20.73
2023-04-21T06:04:31.036Z,21.27
2023-04-21T06:06:57.628Z,21.30
2023-04-21T06:09:24.158Z,21.20
2023-04-21T06:11:50.755Z,22.87
2023-04-21T06:14:17.435Z,22.07
2023-04-21T06:16:44.180Z,23.07
2023-04-21T06:19:10.762Z,23.03
2023-04-21T06:21:37.199Z,21.70
2023-04-21T06:24:03.854Z,20.13
2023-04-21T06:26:30.484Z,21.80
2023-04-21T06:28:57.076Z,21.57
2023-04-21T06:31:23.575Z,23.40
2023-04-21T06:33:50.074Z,22.20
2023-04-21T06:36:18.167Z,19.53
2023-04-21T06:38:45.190Z,18.33
2023-04-21T06:41:11.615Z,18.50
2023-04-21T06:43:38.180Z,19.20
2023-04-21T06:46:04.869Z,16.87
2023-04-21T06:48:31.747Z,18.37
2023-04-21T06:50:58.348Z,16.23
2023-04-21T06:53:24.782Z,18.23
2023-04-21T06:55:52.313Z,16.90
2023-04-21T06:58:21.125Z,14.23
2023-04-21T07:00:48.062Z,16.03
2023-04-21T07:03:14.696Z,16.20
2023-04-21T07:05:41.254Z,15.20
2023-04-21T07:08:07.805Z,14.47
2023-04-21T07:10:34.245Z,13.87
2023-04-21T07:13:00.780Z,14.87
2023-04-21T07:15:27.354Z,12.83
2023-04-21T07:17:53.839Z,14.30
2023-04-21T07:20:20.458Z,14.90
2023-04-21T07:22:47.246Z,13.43
2023-04-21T07:25:13.813Z,12.40
2023-04-21T07:27:40.322Z,12.60
2023-04-21T07:30:09.243Z,11.83
2023-04-21T07:32:38.573Z,12.53
2023-04-21T07:35:06.558Z,11.87
2023-04-21T07:37:33.135Z,11.93
2023-04-21T07:39:59.728Z,13.27
2023-04-21T07:42:26.871Z,11.50
2023-04-21T07:44:53.643Z,12.03
2023-04-21T07:47:20.496Z,12.30
2023-04-21T07:49:47.028Z,11.60
2023-04-21T07:52:13.496Z,12.83
2023-04-21T07:54:40.055Z,10.80
2023-04-21T07:57:07.256Z,11.27
2023-04-21T07:59:33.767Z,10.20
2023-04-21T08:02:00.462Z,10.60
2023-04-21T08:04:27.486Z,11.80
2023-04-21T08:06:54.386Z,10.17
2023-04-21T08:09:21.216Z,11.40
2023-04-21T08:11:47.851Z,10.50
2023-04-21T08:14:14.414Z,11.00
2023-04-21T08:16:42.250Z,8.87
2023-04-21T08:19:09.496Z,9.20
2023-04-21T08:21:36.807Z,9.50
2023-04-21T08:24:03.727Z,9.90
2023-04-21T08:26:30.348Z,10.87
2023-04-21T08:28:57.311Z,9.40
2023-04-21T08:31:24.041Z,10.10
2023-04-21T08:34:01.131Z,10.20
2023-04-21T08:36:30.365Z,10.40
2023-04-21T08:38:57.706Z,9.57
2023-04-21T08:41:25.545Z,10.73
2023-04-21T08:43:52.253Z,9.80
2023-04-21T08:46:19.384Z,11.07
2023-04-21T08:48:47.106Z,9.13
2023-04-21T08:51:20.947Z,9.17
2023-04-21T08:53:47.440Z,9.13
2023-04-21T08:56:13.909Z,10.17
2023-04-21T08:58:41.699Z,9.93
2023-04-21T09:01:08.525Z,10.00
2023-04-21T09:03:35.388Z,9.57
2023-04-21T09:06:08.514Z,9.70
2023-04-21T09:08:43.098Z,9.37
2023-04-21T09:11:14.054Z,10.90
2023-04-21T09:13:42.910Z,9.27
2023-04-21T09:16:18.521Z,9.30
2023-04-21T09:18:45.124Z,10.70
2023-04-21T09:21:16.727Z,11.10
2023-04-21T09:23:48.812Z,10.60
2023-04-21T09:26:16.338Z,11.00
2023-04-21T09:28:45.181Z,11.00
2023-04-21T09:31:20.259Z,10.17
2023-04-21T09:36:23.618Z,10.90
2023-04-21T09:39:17.402Z,10.27
2023-04-21T09:41:44.271Z,10.53
2023-04-21T09:44:10.905Z,12.13
2023-04-21T09:46:38.061Z,11.97
2023-04-21T09:49:05.371Z,11.40
2023-04-21T09:51:56.395Z,10.30
2023-04-21T09:54:29.650Z,10.70
2023-04-21T09:57:03.427Z,11.70
2023-04-21T09:59:34.827Z,10.83
2023-04-21T10:02:05.162Z,10.77
2023-04-21T10:04:33.618Z,11.40
2023-04-21T10:07:01.046Z,9.73
2023-04-21T10:09:33.415Z,11.07
2023-04-21T10:12:02.681Z,10.13
2023-04-21T10:14:29.141Z,9.97
2023-04-21T10:16:57.282Z,10.00
2023-04-21T10:19:28.110Z,9.30
2023-04-21T10:21:58.788Z,9.37
2023-04-21T10:24:29.401Z,10.57
2023-04-21T10:27:02.109Z,9.90
2023-04-21T10:29:40.067Z,10.03
2023-04-21T10:32:11.171Z,8.97
2023-04-21T10:34:38.615Z,7.93
2023-04-21T10:37:05.024Z,8.27
2023-04-21T10:39:51.153Z,7.70
2023-04-21T10:42:20.731Z,9.20
2023-04-21T10:44:56.186Z,9.53
2023-04-21T10:47:31.896Z,10.20
2023-04-21T10:49:59.447Z,9.10
2023-04-21T10:52:35.831Z,10.70
2023-04-21T10:55:03.893Z,11.20
2023-04-21T10:57:34.734Z,9.93
2023-04-21T11:00:01.251Z,10.07
2023-04-21T11:02:27.844Z,12.67
2023-04-21T11:04:55.210Z,11.30
2023-04-21T11:07:26.088Z,12.53
2023-04-21T11:10:00.758Z,12.73
2023-04-21T11:12:32.508Z,10.97
2023-04-21T11:14:59.141Z,11.10
2023-04-21T11:17:26.444Z,11.73
2023-04-21T11:19:56.774Z,11.80
2023-04-21T11:22:25.337Z,11.60
2023-04-21T11:24:56.347Z,10.27
2023-04-21T11:27:23.513Z,11.07
2023-04-21T11:29:51.335Z,12.03
2023-04-21T11:32:18.675Z,12.80
2023-04-21T11:34:45.833Z,12.20
2023-04-21T11:37:20.691Z,10.13
2023-04-21T11:39:47.272Z,10.40
2023-04-21T11:42:22.456Z,12.43
2023-04-21T11:44:49.096Z,11.00
2023-04-21T11:47:28.556Z,11.80
2023-04-21T11:49:57.148Z,9.53
2023-04-21T11:52:25.104Z,10.47
2023-04-21T11:54:56.877Z,10.10
2023-04-21T11:57:24.650Z,9.90
2023-04-21T11:59:52.024Z,11.47
2023-04-21T12:02:24.116Z,11.07
2023-04-21T12:05:05.172Z,10.67
2023-04-21T12:07:51.950Z,10.10
2023-04-21T12:10:20.769Z,9.40
2023-04-21T12:12:48.003Z,10.00
2023-04-21T12:15:23.497Z,9.20
2023-04-21T12:17:55.054Z,8.00
2023-04-21T12:20:24.033Z,7.27
2023-04-21T12:22:50.753Z,10.50
2023-04-21T12:25:17.691Z,9.57
2023-04-21T12:27:48.971Z,9.50
2023-04-21T12:30:16.081Z,11.70
2023-04-21T12:32:42.714Z,10.23
2023-04-21T12:35:09.589Z,9.93
2023-04-21T12:37:36.406Z,10.90
2023-04-21T12:40:03.425Z,10.40
2023-04-21T12:42:29.984Z,9.20
2023-04-21T12:44:56.849Z,8.83
2023-04-21T12:47:23.471Z,8.40
2023-04-21T12:49:50.013Z,7.37
2023-04-21T12:52:16.490Z,6.33
2023-04-21T12:54:44.673Z,5.33
2023-04-21T12:57:11.629Z,4.47
2023-04-21T12:59:38.140Z,3.10
2023-04-21T13:02:04.819Z,4.33
2023-04-21T13:04:32.351Z,3.37
2023-04-21T13:06:59.262Z,2.63
2023-04-21T13:09:26.036Z,2.23
2023-04-21T13:11:52.508Z,2.00
2023-04-21T13:14:19.077Z,2.07
2023-04-21T13:16:45.842Z,2.33
2023-04-21T13:19:12.330Z,3.10
2023-04-21T13:21:38.981Z,1.90
2023-04-21T13:24:05.949Z,2.50
2023-04-21T13:26:35.968Z,1.50
2023-04-21T13:29:04.201Z,2.20
2023-04-21T13:31:32.261Z,2.70
2023-04-21T13:33:59.721Z,2.47
2023-04-21T13:36:26.902Z,1.93
2023-04-21T13:38:55.669Z,2.07
2023-04-21T13:41:22.325Z,1.90
2023-04-21T13:43:48.900Z,1.80
2023-04-21T13:46:15.680Z,2.10
2023-04-21T13:48:44.880Z,2.27
2023-04-21T13:51:11.495Z,2.20
2023-04-21T13:53:37.999Z,3.20
2023-04-21T13:56:04.700Z,2.77
2023-04-21T13:58:31.391Z,3.00
2023-04-21T14:00:57.868Z,2.87
2023-04-21T14:03:24.650Z,3.07
2023-04-21T14:05:51.288Z,3.03
2023-04-21T14:08:18.064Z,3.00
2023-04-21T14:10:44.593Z,3.00
2023-04-21T14:13:17.397Z,3.03
2023-04-21T14:15:53.795Z,3.27
2023-04-21T14:18:20.586Z,2.17
2023-04-21T14:20:47.228Z,3.03
2023-04-21T14:23:13.718Z,2.93
2023-04-21T14:25:40.332Z,3.40
2023-04-21T14:28:07.376Z,2.70
2023-04-21T14:30:37.870Z,3.00
2023-04-21T14:33:05.016Z,2.50
2023-04-21T14:35:31.574Z,2.00
2023-04-21T14:37:58.360Z,2.57
2023-04-21T14:40:24.826Z,2.20
2023-04-21T14:42:51.365Z,2.10
2023-04-21T14:45:17.982Z,2.10
2023-04-21T14:47:44.632Z,2.10
2023-04-21T14:50:12.313Z,2.00
2023-04-21T14:52:39.690Z,1.87
2023-04-21T14:55:06.577Z,2.40
2023-04-21T14:57:33.097Z,1.73
2023-04-21T15:00:00.163Z,2.10
2023-04-21T15:02:27.086Z,2.07
2023-04-21T15:04:53.909Z,1.70
2023-04-21T15:07:24.259Z,1.80
2023-04-21T15:09:51.953Z,1.63
2023-04-21T15:12:18.512Z,2.10
2023-04-21T15:14:45.193Z,1.50
2023-04-21T15:17:11.822Z,2.13
2023-04-21T15:19:38.430Z,1.70
2023-04-21T15:22:05.126Z,2.00
2023-04-21T15:24:31.736Z,2.00
2023-04-21T15:26:58.387Z,1.40
2023-04-21T15:29:24.942Z,2.17
2023-04-21T15:31:51.473Z,1.83
2023-04-21T15:34:17.936Z,1.63
2023-04-21T15:36:44.388Z,2.10
2023-04-21T15:39:13.921Z,1.90
2023-04-21T15:41:40.816Z,1.90
2023-04-21T15:44:07.290Z,1.50
2023-04-21T15:46:34.604Z,2.17
2023-04-21T15:49:01.327Z,1.87
2023-04-21T15:51:28.176Z,2.13
2023-04-21T15:53:54.690Z,1.90
2023-04-21T15:56:21.205Z,1.67
2023-04-21T15:58:47.661Z,1.53
2023-04-21T16:01:14.166Z,1.60
2023-04-21T16:03:40.846Z,1.27
2023-04-21T16:06:07.825Z,1.17
2023-04-21T16:08:34.454Z,1.87
2023-04-21T16:11:01.125Z,1.90
2023-04-21T16:13:27.927Z,1.50
2023-04-21T16:15:54.488Z,1.60
2023-04-21T16:18:21.118Z,1.43
2023-04-21T16:20:47.967Z,1.73
2023-04-21T16:23:15.544Z,1.40
2023-04-21T16:25:42.214Z,1.30
2023-04-21T16:28:09.727Z,1.20
2023-04-21T16:30:38.369Z,1.50
2023-04-21T16:33:04.920Z,1.17
2023-04-21T16:35:31.837Z,1.00
2023-04-21T16:37:58.568Z,1.27
2023-04-21T16:40:25.372Z,1.83
2023-04-21T16:42:52.445Z,1.63
2023-04-21T16:45:19.105Z,1.30
2023-04-21T16:47:45.840Z,1.70
2023-04-21T16:50:12.449Z,1.27
2023-04-21T16:52:39.100Z,1.30
2023-04-21T16:55:06.020Z,1.87
2023-04-21T16:57:33.571Z,1.70
2023-04-21T17:00:00.872Z,1.90
2023-04-21T17:02:27.433Z,1.40
2023-04-21T17:04:54.026Z,2.20
2023-04-21T17:07:20.740Z,2.20
2023-04-21T17:09:47.193Z,1.87
2023-04-21T17:12:13.742Z,1.67
2023-04-21T17:14:40.602Z,2.20
2023-04-21T17:17:07.366Z,1.33
2023-04-21T17:19:34.203Z,1.90
2023-04-21T17:22:00.688Z,1.50
2023-04-21T17:24:29.551Z,1.40
2023-04-21T17:26:59.727Z,1.67
2023-04-21T17:29:26.812Z,1.53
2023-04-21T17:31:53.346Z,1.50
2023-04-21T17:34:19.823Z,1.60
2023-04-21T17:36:46.265Z,1.77
2023-04-21T17:39:12.768Z,1.67
2023-04-21T17:41:39.282Z,1.63
2023-04-21T17:44:05.799Z,1.57
2023-04-21T17:46:32.326Z,1.80
2023-04-21T17:48:58.786Z,1.73
2023-04-21T17:51:26.060Z,2.10
2023-04-21T17:53:53.088Z,2.10
2023-04-21T17:56:19.618Z,1.60
2023-04-21T17:58:46.809Z,2.20
2023-04-21T18:01:13.326Z,1.90
2023-04-21T18:03:42.269Z,2.00
2023-04-21T18:06:11.202Z,2.10
2023-04-21T18:08:38.160Z,2.20
2023-04-21T18:11:04.677Z,1.93
2023-04-21T18:13:31.124Z,2.10
2023-04-21T18:15:57.872Z,3.83
2023-04-21T18:18:24.443Z,2.43
2023-04-21T18:20:50.924Z,2.00
2023-04-21T18:23:17.392Z,2.33
2023-04-21T18:25:43.835Z,2.43
2023-04-21T18:28:13.408Z,2.40
2023-04-21T18:30:40.105Z,2.00
2023-04-21T18:33:06.658Z,2.43
2023-04-21T18:35:33.989Z,2.63
2023-04-21T18:38:00.820Z,2.40
2023-04-21T18:40:27.544Z,2.40
2023-04-21T18:42:54.167Z,2.47
2023-04-21T18:45:20.677Z,2.20
2023-04-21T18:47:47.250Z,2.40
2023-04-21T18:50:13.802Z,2.40
2023-04-21T18:52:40.299Z,2.77
2023-04-21T18:55:07.074Z,2.40
2023-04-21T18:57:33.518Z,2.40
2023-04-21T19:00:00.351Z,2.87
2023-04-21T19:02:28.829Z,2.97
2023-04-21T19:04:55.535Z,3.27
2023-04-21T19:07:21.996Z,2.80
2023-04-21T19:09:48.567Z,3.27
2023-04-21T19:12:15.946Z,2.97
2023-04-21T19:14:47.245Z,3.40
2023-04-21T19:17:14.468Z,3.20
2023-04-21T19:19:41.238Z,3.30
2023-04-21T19:22:07.790Z,4.30
2023-04-21T19:24:35.746Z,2.87
2023-04-21T19:27:03.520Z,3.50
2023-04-21T19:29:30.920Z,2.60
2023-04-21T19:31:57.834Z,2.03
2023-04-21T19:34:24.285Z,1.20
2023-04-21T19:36:52.718Z,0.73
2023-04-21T19:39:19.412Z,0.80
2023-04-21T19:41:45.878Z,0.50
2023-04-21T19:44:12.901Z,0.57
2023-04-21T19:46:42.579Z,0.60
2023-04-21T19:49:12.837Z,0.30
2023-04-21T19:51:40.050Z,0.50
2023-04-21T19:54:11.452Z,0.53
2023-04-21T19:56:39.512Z,0.60
2023-04-21T19:59:06.520Z,0.47
2023-04-21T20:01:36.408Z,0.70
2023-04-21T20:04:03.577Z,0.53
2023-04-21T20:06:30.494Z,0.60
2023-04-21T20:08:56.989Z,0.50
2023-04-21T20:11:23.566Z,0.43
2023-04-21T20:13:50.216Z,0.70
2023-04-21T20:16:18.156Z,0.53
2023-04-21T20:18:44.822Z,0.43
2023-04-21T20:21:11.311Z,0.70
2023-04-21T20:23:37.797Z,0.60
2023-04-21T20:26:04.512Z,0.47
2023-04-21T20:28:32.161Z,0.50
2023-04-21T20:30:58.695Z,0.50
2023-04-21T20:33:25.396Z,0.47
2023-04-21T20:35:52.405Z,0.70
2023-04-21T20:38:19.171Z,0.90
2023-04-21T20:40:46.362Z,0.60
2023-04-21T20:43:12.831Z,0.50
2023-04-21T20:45:41.263Z,0.33
2023-04-21T20:48:07.939Z,0.60
2023-04-21T20:50:34.459Z,0.57
2023-04-21T20:53:00.961Z,0.50
2023-04-21T20:55:27.515Z,0.70
2023-04-21T20:57:53.932Z,0.70
2023-04-21T21:00:20.588Z,0.50
2023-04-21T21:02:47.202Z,0.80
2023-04-21T21:05:13.683Z,0.43
2023-04-21T21:07:40.261Z,0.97
2023-04-21T21:10:08.044Z,0.50
2023-04-21T21:12:34.527Z,0.67
2023-04-21T21:15:00.967Z,0.83
2023-04-21T21:17:27.536Z,1.00
2023-04-21T21:19:54.022Z,0.97
2023-04-21T21:22:20.475Z,0.90
2023-04-21T21:24:46.980Z,0.80
2023-04-21T21:27:13.482Z,0.77
2023-04-21T21:29:40.392Z,0.70
2023-04-21T21:32:07.186Z,0.90
2023-04-21T21:34:33.621Z,0.70
2023-04-21T21:37:00.212Z,0.53
2023-04-21T21:39:26.823Z,0.60
2023-04-21T21:41:53.265Z,0.60
2023-04-21T21:44:21.251Z,0.90
2023-04-21T21:46:49.110Z,0.70
2023-04-21T21:49:15.920Z,0.60
2023-04-21T21:51:42.477Z,0.83
2023-04-21T21:54:08.911Z,1.20
2023-04-21T21:56:36.462Z,1.30
2023-04-21T21:59:02.946Z,1.27
2023-04-21T22:01:29.601Z,1.00
2023-04-21T22:03:56.396Z,1.40
2023-04-21T22:06:24.355Z,1.60
2023-04-21T22:08:51.356Z,1.37
2023-04-21T22:11:20.289Z,1.13
2023-04-21T22:13:46.930Z,1.43
2023-04-21T22:16:13.639Z,1.60
2023-04-21T22:18:40.188Z,1.33
2023-04-21T22:21:06.670Z,1.50
2023-04-21T22:23:33.146Z,1.30
2023-04-21T22:25:59.720Z,1.67
2023-04-21T22:28:26.174Z,1.60
2023-04-21T22:30:52.723Z,1.60
2023-04-21T22:33:19.382Z,1.30
2023-04-21T22:35:45.894Z,1.40
2023-04-21T22:38:12.322Z,1.40
2023-04-21T22:40:38.816Z,1.37
2023-04-21T22:43:05.774Z,1.33
2023-04-21T22:45:32.434Z,1.40
2023-04-21T22:47:58.901Z,1.80
2023-04-21T22:50:25.591Z,1.30
2023-04-21T22:52:52.075Z,1.40
2023-04-21T22:55:18.498Z,1.40
2023-04-21T22:57:44.962Z,1.37
2023-04-21T23:00:11.746Z,1.40
2023-04-21T23:02:38.519Z,1.83
2023-04-21T23:05:05.639Z,2.20
2023-04-21T23:07:32.109Z,2.60
2023-04-21T23:09:58.746Z,2.17
2023-04-21T23:12:25.772Z,2.00
2023-04-21T23:14:52.302Z,1.77
2023-04-21T23:17:18.729Z,1.80
2023-04-21T23:19:45.864Z,1.40
2023-04-21T23:22:12.378Z,1.63
2023-04-21T23:24:39.161Z,1.63
2023-04-21T23:27:05.684Z,1.77
2023-04-21T23:29:32.161Z,2.07
2023-04-21T23:31:58.755Z,1.80
2023-04-21T23:34:25.487Z,2.03
2023-04-21T23:36:51.915Z,1.70
2023-04-21T23:39:21.436Z,1.97
2023-04-21T23:41:48.216Z,1.80
2023-04-21T23:44:15.125Z,1.60
2023-04-21T23:46:41.744Z,2.10
2023-04-21T23:49:08.434Z,1.40
2023-04-21T23:51:34.993Z,2.00
2023-04-21T23:54:02.082Z,2.30
2023-04-21T23:56:28.889Z,1.80
2023-04-21T23:58:55.599Z,1.30
